sensor_id;sensor_type;location;lat;lon;timestamp;pressure;altitude;pressure_sealevel;temperature;humidity
11049;BME280;5577;42.706;23.160;2022-11-20T00:00:18;93434.41;;;17.70;100.00
11049;BME280;5577;42.706;23.160;2022-11-20T00:03:02;93442.81;;;17.72;100.00
11049;BME280;5577;42.706;23.160;2022-11-20T00:05:46;93434.19;;;17.61;100.00
11049;BME280;5577;42.706;23.160;2022-11-20T00:08:29;93436.09;;;17.61;100.00
11049;BME280;5577;42.706;23.160;2022-11-20T00:11:16;93424.94;;;17.66;100.00
11049;BME280;5577;42.706;23.160;2022-11-20T00:14:01;93405.16;;;17.60;100.00
11049;BME280;5577;42.706;23.160;2022-11-20T00:16:46;93405.19;;;17.56;100.00
11049;BME280;5577;42.706;23.160;2022-11-20T00:19:30;93405.47;;;17.62;100.00
11049;BME280;5577;42.706;23.160;2022-11-20T00:22:14;93420.91;;;17.54;100.00
11049;BME280;5577;42.706;23.160;2022-11-20T00:24:58;93404.97;;;17.47;100.00
11049;BME280;5577;42.706;23.160;2022-11-20T00:27:42;93386.16;;;17.24;100.00
11049;BME280;5577;42.706;23.160;2022-11-20T00:30:26;93415.66;;;17.47;100.00
11049;BME280;5577;42.706;23.160;2022-11-20T00:33:10;93431.34;;;17.45;100.00
11049;BME280;5577;42.706;23.160;2022-11-20T00:35:59;93445.50;;;17.46;100.00
11049;BME280;5577;42.706;23.160;2022-11-20T00:38:44;93424.41;;;17.51;100.00
11049;BME280;5577;42.706;23.160;2022-11-20T00:41:29;93424.09;;;17.46;100.00
11049;BME280;5577;42.706;23.160;2022-11-20T00:44:13;93430.28;;;17.39;100.00
11049;BME280;5577;42.706;23.160;2022-11-20T00:46:57;93435.41;;;17.27;100.00
11049;BME280;5577;42.706;23.160;2022-11-20T00:49:41;93423.56;;;17.28;100.00
11049;BME280;5577;42.706;23.160;2022-11-20T00:52:25;93424.41;;;17.21;100.00
11049;BME280;5577;42.706;23.160;2022-11-20T00:55:09;93438.25;;;17.16;100.00
11049;BME280;5577;42.706;23.160;2022-11-20T00:57:53;93341.06;;;16.73;100.00
11049;BME280;5577;42.706;23.160;2022-11-20T01:00:36;93435.75;;;17.32;100.00
11049;BME280;5577;42.706;23.160;2022-11-20T01:03:20;93424.56;;;17.37;100.00
11049;BME280;5577;42.706;23.160;2022-11-20T01:06:07;93401.81;;;17.26;100.00
11049;BME280;5577;42.706;23.160;2022-11-20T01:08:54;93420.59;;;17.22;100.00
11049;BME280;5577;42.706;23.160;2022-11-20T01:11:41;93419.91;;;17.18;100.00
11049;BME280;5577;42.706;23.160;2022-11-20T01:14:25;93401.81;;;17.26;100.00
11049;BME280;5577;42.706;23.160;2022-11-20T01:17:09;93381.59;;;17.25;100.00
11049;BME280;5577;42.706;23.160;2022-11-20T01:19:53;93389.94;;;17.27;100.00
11049;BME280;5577;42.706;23.160;2022-11-20T01:22:37;93383.84;;;17.26;100.00
11049;BME280;5577;42.706;23.160;2022-11-20T01:25:21;93385.44;;;17.24;100.00
11049;BME280;5577;42.706;23.160;2022-11-20T01:28:05;93382.66;;;17.31;100.00
11049;BME280;5577;42.706;23.160;2022-11-20T01:30:49;93368.09;;;17.32;100.00
11049;BME280;5577;42.706;23.160;2022-11-20T01:33:33;93381.59;;;17.25;100.00
11049;BME280;5577;42.706;23.160;2022-11-20T01:36:18;93373.56;;;17.25;100.00
11049;BME280;5577;42.706;23.160;2022-11-20T01:39:11;93374.31;;;17.25;100.00
11049;BME280;5577;42.706;23.160;2022-11-20T01:41:55;93365.94;;;17.23;100.00
11049;BME280;5577;42.706;23.160;2022-11-20T01:44:59;93372.34;;;17.29;100.00
11049;BME280;5577;42.706;23.160;2022-11-20T01:47:45;93378.25;;;17.44;100.00
11049;BME280;5577;42.706;23.160;2022-11-20T01:50:30;93367.50;;;17.47;100.00
11049;BME280;5577;42.706;23.160;2022-11-20T01:53:17;93387.34;;;17.50;100.00
11049;BME280;5577;42.706;23.160;2022-11-20T01:56:05;93356.72;;;17.51;100.00
11049;BME280;5577;42.706;23.160;2022-11-20T01:58:56;93370.25;;;17.40;100.00
11049;BME280;5577;42.706;23.160;2022-11-20T02:01:41;93357.72;;;17.34;100.00
11049;BME280;5577;42.706;23.160;2022-11-20T02:04:26;93366.28;;;17.52;100.00
11049;BME280;5577;42.706;23.160;2022-11-20T02:07:10;93379.25;;;17.53;100.00
11049;BME280;5577;42.706;23.160;2022-11-20T02:09:54;93382.38;;;17.48;100.00
11049;BME280;5577;42.706;23.160;2022-11-20T02:12:38;93368.66;;;17.46;100.00
11049;BME280;5577;42.706;23.160;2022-11-20T02:15:48;93366.41;;;17.45;100.00
11049;BME280;5577;42.706;23.160;2022-11-20T02:18:33;93383.56;;;17.47;100.00
11049;BME280;5577;42.706;23.160;2022-11-20T02:21:47;93384.25;;;17.51;100.00
11049;BME280;5577;42.706;23.160;2022-11-20T02:24:33;93390.78;;;17.50;100.00
11049;BME280;5577;42.706;23.160;2022-11-20T02:27:18;93425.06;;;17.59;100.00
11049;BME280;5577;42.706;23.160;2022-11-20T02:30:04;93386.75;;;17.62;100.00
11049;BME280;5577;42.706;23.160;2022-11-20T02:32:51;93396.41;;;17.56;100.00
11049;BME280;5577;42.706;23.160;2022-11-20T02:35:40;93398.31;;;17.55;100.00
11049;BME280;5577;42.706;23.160;2022-11-20T02:38:25;93398.44;;;17.48;100.00
11049;BME280;5577;42.706;23.160;2022-11-20T02:41:09;93419.50;;;17.46;100.00
11049;BME280;5577;42.706;23.160;2022-11-20T02:43:53;93410.75;;;17.42;100.00
11049;BME280;5577;42.706;23.160;2022-11-20T02:46:37;93406.22;;;17.39;100.00
11049;BME280;5577;42.706;23.160;2022-11-20T02:49:21;93405.56;;;17.32;100.00
11049;BME280;5577;42.706;23.160;2022-11-20T02:52:05;93404.09;;;17.27;100.00
11049;BME280;5577;42.706;23.160;2022-11-20T02:54:49;93392.78;;;17.16;100.00
11049;BME280;5577;42.706;23.160;2022-11-20T02:57:33;93400.84;;;17.12;100.00
11049;BME280;5577;42.706;23.160;2022-11-20T03:00:17;93414.88;;;17.20;100.00
11049;BME280;5577;42.706;23.160;2022-11-20T03:03:01;93397.03;;;17.13;100.00
11049;BME280;5577;42.706;23.160;2022-11-20T03:05:46;93412.22;;;17.20;100.00
11049;BME280;5577;42.706;23.160;2022-11-20T03:08:30;93352.72;;;17.12;100.00
11049;BME280;5577;42.706;23.160;2022-11-20T03:11:14;93410.00;;;17.15;100.00
11049;BME280;5577;42.706;23.160;2022-11-20T03:14:02;93422.31;;;17.09;100.00
11049;BME280;5577;42.706;23.160;2022-11-20T03:16:46;93400.78;;;16.89;100.00
11049;BME280;5577;42.706;23.160;2022-11-20T03:19:30;93414.31;;;17.05;100.00
11049;BME280;5577;42.706;23.160;2022-11-20T03:22:13;93400.25;;;17.01;100.00
11049;BME280;5577;42.706;23.160;2022-11-20T03:24:57;93383.50;;;16.97;100.00
11049;BME280;5577;42.706;23.160;2022-11-20T03:27:41;93382.09;;;16.89;100.00
11049;BME280;5577;42.706;23.160;2022-11-20T03:30:25;93417.16;;;16.95;100.00
11049;BME280;5577;42.706;23.160;2022-11-20T03:33:09;93393.47;;;16.93;100.00
11049;BME280;5577;42.706;23.160;2022-11-20T03:35:54;93391.97;;;16.92;100.00
11049;BME280;5577;42.706;23.160;2022-11-20T03:38:38;93413.78;;;16.87;100.00
11049;BME280;5577;42.706;23.160;2022-11-20T03:41:28;93408.41;;;16.91;100.00
11049;BME280;5577;42.706;23.160;2022-11-20T03:44:12;93405.34;;;16.92;100.00
11049;BME280;5577;42.706;23.160;2022-11-20T03:46:56;93402.31;;;16.90;100.00
11049;BME280;5577;42.706;23.160;2022-11-20T03:49:40;93401.19;;;16.88;100.00
11049;BME280;5577;42.706;23.160;2022-11-20T03:52:24;93398.16;;;16.86;100.00
11049;BME280;5577;42.706;23.160;2022-11-20T03:55:08;93406.94;;;16.86;100.00
11049;BME280;5577;42.706;23.160;2022-11-20T03:57:52;93412.25;;;16.90;100.00
11049;BME280;5577;42.706;23.160;2022-11-20T04:00:36;93408.84;;;16.86;100.00
11049;BME280;5577;42.706;23.160;2022-11-20T04:03:20;93413.88;;;16.80;100.00
11049;BME280;5577;42.706;23.160;2022-11-20T04:06:18;93388.41;;;16.72;100.00
11049;BME280;5577;42.706;23.160;2022-11-20T04:09:03;93392.59;;;16.73;100.00
11049;BME280;5577;42.706;23.160;2022-11-20T04:11:47;93394.97;;;16.68;100.00
11049;BME280;5577;42.706;23.160;2022-11-20T04:14:31;93371.06;;;16.57;100.00
11049;BME280;5577;42.706;23.160;2022-11-20T04:17:15;93388.16;;;16.63;100.00
11049;BME280;5577;42.706;23.160;2022-11-20T04:19:59;93383.22;;;16.62;100.00
11049;BME280;5577;42.706;23.160;2022-11-20T04:22:43;93389.66;;;16.64;100.00
11049;BME280;5577;42.706;23.160;2022-11-20T04:25:27;93382.75;;;16.67;100.00
11049;BME280;5577;42.706;23.160;2022-11-20T04:28:11;93354.34;;;16.50;100.00
11049;BME280;5577;42.706;23.160;2022-11-20T04:31:11;93389.19;;;16.73;100.00
11049;BME280;5577;42.706;23.160;2022-11-20T04:33:55;93385.34;;;16.74;100.00
11049;BME280;5577;42.706;23.160;2022-11-20T04:36:42;93365.81;;;16.50;100.00
11049;BME280;5577;42.706;23.160;2022-11-20T04:39:26;93398.75;;;16.70;100.00
11049;BME280;5577;42.706;23.160;2022-11-20T04:42:10;93375.63;;;16.57;100.00
11049;BME280;5577;42.706;23.160;2022-11-20T04:45:13;93415.31;;;16.58;100.00
11049;BME280;5577;42.706;23.160;2022-11-20T04:47:56;93385.97;;;16.55;100.00
11049;BME280;5577;42.706;23.160;2022-11-20T04:50:40;93392.94;;;16.45;100.00
11049;BME280;5577;42.706;23.160;2022-11-20T04:53:25;93374.59;;;16.47;100.00
11049;BME280;5577;42.706;23.160;2022-11-20T04:56:10;93412.03;;;16.44;100.00
11049;BME280;5577;42.706;23.160;2022-11-20T04:58:55;93381.91;;;16.40;100.00
11049;BME280;5577;42.706;23.160;2022-11-20T05:01:39;93396.88;;;16.34;100.00
11049;BME280;5577;42.706;23.160;2022-11-20T05:04:23;93393.84;;;16.32;100.00
11049;BME280;5577;42.706;23.160;2022-11-20T05:07:07;93368.69;;;16.29;100.00
11049;BME280;5577;42.706;23.160;2022-11-20T05:09:51;93347.00;;;16.24;100.00
11049;BME280;5577;42.706;23.160;2022-11-20T05:12:35;93355.44;;;16.22;100.00
11049;BME280;5577;42.706;23.160;2022-11-20T05:15:19;93385.66;;;16.12;100.00
11049;BME280;5577;42.706;23.160;2022-11-20T05:18:03;93229.66;;;15.09;100.00
11049;BME280;5577;42.706;23.160;2022-11-20T05:20:54;93383.06;;;16.05;100.00
11049;BME280;5577;42.706;23.160;2022-11-20T05:23:39;93334.22;;;15.71;100.00
11049;BME280;5577;42.706;23.160;2022-11-20T05:26:23;93391.16;;;15.95;100.00
11049;BME280;5577;42.706;23.160;2022-11-20T05:29:10;93389.66;;;15.94;100.00
11049;BME280;5577;42.706;23.160;2022-11-20T05:31:55;93369.53;;;15.86;100.00
11049;BME280;5577;42.706;23.160;2022-11-20T05:34:39;93376.75;;;15.89;100.00
11049;BME280;5577;42.706;23.160;2022-11-20T05:37:23;93400.06;;;15.85;100.00
11049;BME280;5577;42.706;23.160;2022-11-20T05:40:07;93352.44;;;15.80;100.00
11049;BME280;5577;42.706;23.160;2022-11-20T05:42:52;93386.38;;;15.79;100.00
11049;BME280;5577;42.706;23.160;2022-11-20T05:45:36;93357.38;;;15.81;100.00
11049;BME280;5577;42.706;23.160;2022-11-20T05:48:20;93363.56;;;15.71;100.00
11049;BME280;5577;42.706;23.160;2022-11-20T05:51:06;93373.38;;;15.85;100.00
11049;BME280;5577;42.706;23.160;2022-11-20T05:53:51;93376.09;;;15.78;100.00
11049;BME280;5577;42.706;23.160;2022-11-20T05:56:35;93389.78;;;15.80;100.00
11049;BME280;5577;42.706;23.160;2022-11-20T05:59:18;93389.72;;;15.87;100.00
11049;BME280;5577;42.706;23.160;2022-11-20T06:02:02;93401.91;;;15.91;100.00
11049;BME280;5577;42.706;23.160;2022-11-20T06:04:46;93419.78;;;15.94;100.00
11049;BME280;5577;42.706;23.160;2022-11-20T06:07:30;93414.81;;;15.96;100.00
11049;BME280;5577;42.706;23.160;2022-11-20T06:10:14;93412.06;;;16.03;100.00
11049;BME280;5577;42.706;23.160;2022-11-20T06:12:58;93415.81;;;16.13;100.00
11049;BME280;5577;42.706;23.160;2022-11-20T06:15:42;93411.13;;;16.20;100.00
11049;BME280;5577;42.706;23.160;2022-11-20T06:18:32;93419.06;;;16.27;100.00
11049;BME280;5577;42.706;23.160;2022-11-20T06:21:21;93424.06;;;16.25;100.00
11049;BME280;5577;42.706;23.160;2022-11-20T06:24:05;93407.03;;;16.12;100.00
11049;BME280;5577;42.706;23.160;2022-11-20T06:26:50;93428.19;;;16.30;100.00
11049;BME280;5577;42.706;23.160;2022-11-20T06:29:34;93408.69;;;16.36;100.00
11049;BME280;5577;42.706;23.160;2022-11-20T06:32:18;93402.66;;;16.29;100.00
11049;BME280;5577;42.706;23.160;2022-11-20T06:35:02;93419.53;;;16.56;100.00
11049;BME280;5577;42.706;23.160;2022-11-20T06:37:46;93428.56;;;16.69;100.00
11049;BME280;5577;42.706;23.160;2022-11-20T06:40:30;93433.81;;;16.76;100.00
11049;BME280;5577;42.706;23.160;2022-11-20T06:43:14;93440.63;;;16.80;100.00
11049;BME280;5577;42.706;23.160;2022-11-20T06:45:58;93442.09;;;16.85;100.00
11049;BME280;5577;42.706;23.160;2022-11-20T06:48:43;93431.06;;;16.83;100.00
11049;BME280;5577;42.706;23.160;2022-11-20T06:51:27;93452.94;;;16.74;100.00
11049;BME280;5577;42.706;23.160;2022-11-20T06:54:11;93443.06;;;16.68;100.00
11049;BME280;5577;42.706;23.160;2022-11-20T06:56:55;93410.06;;;16.51;100.00
11049;BME280;5577;42.706;23.160;2022-11-20T06:59:39;93444.84;;;16.78;100.00
11049;BME280;5577;42.706;23.160;2022-11-20T07:02:23;93462.13;;;16.70;100.00
11049;BME280;5577;42.706;23.160;2022-11-20T07:05:07;93444.38;;;16.56;100.00
11049;BME280;5577;42.706;23.160;2022-11-20T07:07:50;93459.72;;;16.49;100.00
11049;BME280;5577;42.706;23.160;2022-11-20T07:10:35;93457.56;;;16.33;100.00
11049;BME280;5577;42.706;23.160;2022-11-20T07:13:18;93465.25;;;16.24;100.00
11049;BME280;5577;42.706;23.160;2022-11-20T07:16:05;93477.09;;;16.23;100.00
11049;BME280;5577;42.706;23.160;2022-11-20T07:18:50;93434.25;;;15.97;100.00
11049;BME280;5577;42.706;23.160;2022-11-20T07:21:34;93471.88;;;16.13;100.00
11049;BME280;5577;42.706;23.160;2022-11-20T07:24:18;93452.81;;;16.11;100.00
11049;BME280;5577;42.706;23.160;2022-11-20T07:27:02;93465.41;;;16.10;100.00
11049;BME280;5577;42.706;23.160;2022-11-20T07:29:47;93478.00;;;16.10;100.00
11049;BME280;5577;42.706;23.160;2022-11-20T07:32:31;93468.06;;;16.10;100.00
11049;BME280;5577;42.706;23.160;2022-11-20T07:35:15;93462.72;;;16.10;100.00
11049;BME280;5577;42.706;23.160;2022-11-20T07:37:59;93461.53;;;16.15;100.00
11049;BME280;5577;42.706;23.160;2022-11-20T07:40:43;93464.22;;;16.15;100.00
11049;BME280;5577;42.706;23.160;2022-11-20T07:43:27;93481.34;;;16.17;100.00
11049;BME280;5577;42.706;23.160;2022-11-20T07:46:11;93465.66;;;16.23;100.00
11049;BME280;5577;42.706;23.160;2022-11-20T07:48:55;93460.25;;;16.30;100.00
11049;BME280;5577;42.706;23.160;2022-11-20T07:51:39;93473.13;;;16.38;100.00
11049;BME280;5577;42.706;23.160;2022-11-20T07:54:23;93469.66;;;16.41;100.00
11049;BME280;5577;42.706;23.160;2022-11-20T07:57:07;93460.50;;;16.46;100.00
11049;BME280;5577;42.706;23.160;2022-11-20T07:59:51;93486.38;;;16.52;100.00
11049;BME280;5577;42.706;23.160;2022-11-20T08:02:39;93483.69;;;16.52;100.00
11049;BME280;5577;42.706;23.160;2022-11-20T08:05:24;93498.91;;;16.59;100.00
11049;BME280;5577;42.706;23.160;2022-11-20T08:08:08;93492.81;;;16.58;100.00
11049;BME280;5577;42.706;23.160;2022-11-20T08:10:52;93485.81;;;16.68;100.00
11049;BME280;5577;42.706;23.160;2022-11-20T08:13:36;93481.41;;;16.54;100.00
11049;BME280;5577;42.706;23.160;2022-11-20T08:16:44;93480.16;;;16.62;100.00
11049;BME280;5577;42.706;23.160;2022-11-20T08:19:28;93488.22;;;16.59;100.00
11049;BME280;5577;42.706;23.160;2022-11-20T08:22:13;93480.28;;;16.52;100.00
11049;BME280;5577;42.706;23.160;2022-11-20T08:24:57;93496.81;;;16.36;100.00
11049;BME280;5577;42.706;23.160;2022-11-20T08:27:41;93492.84;;;16.14;100.00
11049;BME280;5577;42.706;23.160;2022-11-20T08:30:25;93517.00;;;16.00;100.00
11049;BME280;5577;42.706;23.160;2022-11-20T08:33:09;93518.31;;;15.75;100.00
11049;BME280;5577;42.706;23.160;2022-11-20T08:35:53;93522.88;;;15.78;100.00
11049;BME280;5577;42.706;23.160;2022-11-20T08:38:42;93523.22;;;15.80;100.00
11049;BME280;5577;42.706;23.160;2022-11-20T08:41:26;93532.91;;;15.60;100.00
11049;BME280;5577;42.706;23.160;2022-11-20T08:44:10;93544.13;;;15.27;100.00
11049;BME280;5577;42.706;23.160;2022-11-20T08:46:54;93551.06;;;15.10;100.00
11049;BME280;5577;42.706;23.160;2022-11-20T08:49:38;93568.19;;;15.06;100.00
11049;BME280;5577;42.706;23.160;2022-11-20T08:52:22;93557.50;;;15.13;100.00
11049;BME280;5577;42.706;23.160;2022-11-20T08:55:07;93551.75;;;15.25;100.00
11049;BME280;5577;42.706;23.160;2022-11-20T08:57:51;93559.31;;;15.40;100.00
11049;BME280;5577;42.706;23.160;2022-11-20T09:00:35;93564.72;;;15.12;100.00
11049;BME280;5577;42.706;23.160;2022-11-20T09:03:19;93572.75;;;15.09;100.00
11049;BME280;5577;42.706;23.160;2022-11-20T09:06:06;93579.97;;;15.08;100.00
11049;BME280;5577;42.706;23.160;2022-11-20T09:08:54;93580.03;;;14.94;100.00
11049;BME280;5577;42.706;23.160;2022-11-20T09:11:38;93586.91;;;14.85;100.00
11049;BME280;5577;42.706;23.160;2022-11-20T09:14:22;93601.78;;;14.72;100.00
11049;BME280;5577;42.706;23.160;2022-11-20T09:17:10;93583.94;;;14.62;100.00
11049;BME280;5577;42.706;23.160;2022-11-20T09:19:57;93589.28;;;14.55;100.00
11049;BME280;5577;42.706;23.160;2022-11-20T09:22:41;93588.50;;;14.61;100.00
11049;BME280;5577;42.706;23.160;2022-11-20T09:25:25;93554.66;;;14.48;100.00
11049;BME280;5577;42.706;23.160;2022-11-20T09:28:09;93536.38;;;14.60;100.00
11049;BME280;5577;42.706;23.160;2022-11-20T09:30:53;93554.09;;;15.09;100.00
11049;BME280;5577;42.706;23.160;2022-11-20T09:33:37;93531.59;;;15.20;100.00
11049;BME280;5577;42.706;23.160;2022-11-20T09:36:21;93531.16;;;15.25;100.00
11049;BME280;5577;42.706;23.160;2022-11-20T09:39:05;93548.66;;;15.30;100.00
11049;BME280;5577;42.706;23.160;2022-11-20T09:42:47;93521.63;;;15.31;100.00
11049;BME280;5577;42.706;23.160;2022-11-20T09:45:37;93530.34;;;15.35;100.00
11049;BME280;5577;42.706;23.160;2022-11-20T09:51:58;93500.19;;;15.52;100.00
11049;BME280;5577;42.706;23.160;2022-11-20T09:54:43;93495.97;;;15.55;100.00
11049;BME280;5577;42.706;23.160;2022-11-20T09:57:39;93475.03;;;15.53;100.00
11049;BME280;5577;42.706;23.160;2022-11-20T10:00:24;93501.16;;;15.79;100.00
11049;BME280;5577;42.706;23.160;2022-11-20T10:03:30;93460.69;;;15.81;100.00
11049;BME280;5577;42.706;23.160;2022-11-20T10:06:27;93484.59;;;15.98;100.00
11049;BME280;5577;42.706;23.160;2022-11-20T10:09:20;93495.66;;;15.97;100.00
11049;BME280;5577;42.706;23.160;2022-11-20T10:28:41;93523.47;;;15.99;100.00
11049;BME280;5577;42.706;23.160;2022-11-20T10:31:34;93516.44;;;15.68;100.00
11049;BME280;5577;42.706;23.160;2022-11-20T10:34:41;93524.00;;;15.12;100.00
11049;BME280;5577;42.706;23.160;2022-11-20T10:37:31;93511.22;;;14.65;100.00
11049;BME280;5577;42.706;23.160;2022-11-20T10:43:11;93502.56;;;14.25;100.00
11049;BME280;5577;42.706;23.160;2022-11-20T10:46:00;93502.97;;;13.61;100.00
11049;BME280;5577;42.706;23.160;2022-11-20T10:48:46;93522.91;;;12.92;100.00
11049;BME280;5577;42.706;23.160;2022-11-20T10:51:37;93538.25;;;12.48;100.00
11049;BME280;5577;42.706;23.160;2022-11-20T11:00:22;93512.16;;;11.96;100.00
11049;BME280;5577;42.706;23.160;2022-11-20T11:03:27;93519.72;;;11.94;100.00
11049;BME280;5577;42.706;23.160;2022-11-20T11:06:46;93501.53;;;11.92;100.00
11049;BME280;5577;42.706;23.160;2022-11-20T11:09:43;93524.56;;;11.85;100.00
11049;BME280;5577;42.706;23.160;2022-11-20T11:12:30;93511.66;;;11.80;100.00
11049;BME280;5577;42.706;23.160;2022-11-20T11:15:38;93509.75;;;11.77;100.00
11049;BME280;5577;42.706;23.160;2022-11-20T11:18:28;93514.13;;;11.58;100.00
11049;BME280;5577;42.706;23.160;2022-11-20T11:21:21;93533.56;;;11.70;100.00
11049;BME280;5577;42.706;23.160;2022-11-20T11:24:19;93532.31;;;11.60;100.00
11049;BME280;5577;42.706;23.160;2022-11-20T11:27:11;93524.03;;;11.65;100.00
11049;BME280;5577;42.706;23.160;2022-11-20T11:30:11;93534.31;;;11.70;100.00
11049;BME280;5577;42.706;23.160;2022-11-20T11:33:05;93547.19;;;11.72;100.00
11049;BME280;5577;42.706;23.160;2022-11-20T11:35:58;93537.19;;;11.58;100.00
11049;BME280;5577;42.706;23.160;2022-11-20T11:38:44;93551.59;;;12.01;100.00
11049;BME280;5577;42.706;23.160;2022-11-20T11:41:31;93550.94;;;12.11;100.00
11049;BME280;5577;42.706;23.160;2022-11-20T11:44:20;93559.72;;;12.22;100.00
11049;BME280;5577;42.706;23.160;2022-11-20T11:47:31;93547.59;;;12.28;100.00
11049;BME280;5577;42.706;23.160;2022-11-20T11:50:19;93543.09;;;12.32;100.00
11049;BME280;5577;42.706;23.160;2022-11-20T11:53:26;93560.13;;;12.27;100.00
11049;BME280;5577;42.706;23.160;2022-11-20T11:56:13;93554.47;;;12.32;100.00
11049;BME280;5577;42.706;23.160;2022-11-20T11:59:00;93562.06;;;12.30;100.00
11049;BME280;5577;42.706;23.160;2022-11-20T12:01:52;93530.47;;;12.15;100.00
11049;BME280;5577;42.706;23.160;2022-11-20T12:04:44;93554.84;;;12.31;100.00
11049;BME280;5577;42.706;23.160;2022-11-20T12:07:42;93560.13;;;12.27;100.00
11049;BME280;5577;42.706;23.160;2022-11-20T12:14:21;93551.78;;;12.25;100.00
11049;BME280;5577;42.706;23.160;2022-11-20T12:16:47;93554.41;;;12.25;100.00
11049;BME280;5577;42.706;23.160;2022-11-20T12:19:33;93552.91;;;12.28;100.00
11049;BME280;5577;42.706;23.160;2022-11-20T12:25:11;93547.31;;;12.40;100.00
11049;BME280;5577;42.706;23.160;2022-11-20T12:34:09;93528.69;;;12.33;100.00
11049;BME280;5577;42.706;23.160;2022-11-20T12:37:05;93513.09;;;12.28;100.00
11049;BME280;5577;42.706;23.160;2022-11-20T12:39:57;93529.50;;;12.44;100.00
11049;BME280;5577;42.706;23.160;2022-11-20T12:43:00;93537.56;;;12.58;100.00
11049;BME280;5577;42.706;23.160;2022-11-20T12:46:59;93534.97;;;12.72;100.00
11049;BME280;5577;42.706;23.160;2022-11-20T12:49:50;93478.41;;;12.61;100.00
11049;BME280;5577;42.706;23.160;2022-11-20T12:52:53;93499.06;;;12.99;100.00
11049;BME280;5577;42.706;23.160;2022-11-20T13:07:45;93467.63;;;13.50;100.00
11049;BME280;5577;42.706;23.160;2022-11-20T13:10:37;93481.31;;;13.59;100.00
11049;BME280;5577;42.706;23.160;2022-11-20T13:19:04;93482.81;;;13.53;100.00
11049;BME280;5577;42.706;23.160;2022-11-20T13:21:49;93521.97;;;13.70;100.00
11049;BME280;5577;42.706;23.160;2022-11-20T13:24:34;93526.91;;;13.71;100.00
11049;BME280;5577;42.706;23.160;2022-11-20T13:27:22;93507.53;;;13.81;100.00
11049;BME280;5577;42.706;23.160;2022-11-20T13:30:16;93526.16;;;13.95;100.00
11049;BME280;5577;42.706;23.160;2022-11-20T13:33:09;93421.66;;;13.21;100.00
11049;BME280;5577;42.706;23.160;2022-11-20T13:36:23;93541.00;;;13.86;100.00
11049;BME280;5577;42.706;23.160;2022-11-20T13:39:08;93527.28;;;13.70;100.00
11049;BME280;5577;42.706;23.160;2022-11-20T13:41:55;93502.19;;;13.39;100.00
11049;BME280;5577;42.706;23.160;2022-11-20T13:44:48;93534.13;;;13.60;100.00
11049;BME280;5577;42.706;23.160;2022-11-20T13:47:35;93539.81;;;13.55;100.00
11049;BME280;5577;42.706;23.160;2022-11-20T13:50:32;93542.44;;;13.48;100.00
11049;BME280;5577;42.706;23.160;2022-11-20T13:53:42;93536.38;;;13.44;100.00
11049;BME280;5577;42.706;23.160;2022-11-20T14:02:40;93532.50;;;13.24;100.00
11049;BME280;5577;42.706;23.160;2022-11-20T14:05:25;93546.56;;;13.14;100.00
11049;BME280;5577;42.706;23.160;2022-11-20T14:08:14;93540.06;;;13.05;100.00
11049;BME280;5577;42.706;23.160;2022-11-20T14:11:18;93540.44;;;13.03;100.00
11049;BME280;5577;42.706;23.160;2022-11-20T14:14:13;93491.28;;;12.59;100.00
11049;BME280;5577;42.706;23.160;2022-11-20T14:20:14;93458.28;;;12.56;100.00
11049;BME280;5577;42.706;23.160;2022-11-20T14:22:58;93515.66;;;12.85;100.00
11049;BME280;5577;42.706;23.160;2022-11-20T14:25:43;93513.38;;;12.84;100.00
11049;BME280;5577;42.706;23.160;2022-11-20T14:28:30;93517.56;;;12.81;100.00
11049;BME280;5577;42.706;23.160;2022-11-20T14:31:25;93514.88;;;12.74;100.00
11049;BME280;5577;42.706;23.160;2022-11-20T14:34:17;93527.78;;;12.72;100.00
11049;BME280;5577;42.706;23.160;2022-11-20T14:37:04;93516.72;;;12.63;100.00
11049;BME280;5577;42.706;23.160;2022-11-20T14:39:52;93517.06;;;12.55;100.00
11049;BME280;5577;42.706;23.160;2022-11-20T14:42:37;93534.47;;;12.49;100.00
11049;BME280;5577;42.706;23.160;2022-11-20T14:45:21;93522.66;;;12.39;100.00
11049;BME280;5577;42.706;23.160;2022-11-20T14:48:09;93512.03;;;12.36;100.00
11049;BME280;5577;42.706;23.160;2022-11-20T14:50:54;93506.69;;;12.29;100.00
11049;BME280;5577;42.706;23.160;2022-11-20T14:53:38;93524.56;;;12.39;100.00
11049;BME280;5577;42.706;23.160;2022-11-20T14:56:23;93551.91;;;12.43;100.00
11049;BME280;5577;42.706;23.160;2022-11-20T14:59:08;93541.19;;;12.32;100.00
11049;BME280;5577;42.706;23.160;2022-11-20T15:02:24;93549.25;;;12.46;100.00
11049;BME280;5577;42.706;23.160;2022-11-20T15:05:08;93560.63;;;12.47;100.00
11049;BME280;5577;42.706;23.160;2022-11-20T15:08:08;93546.91;;;12.38;100.00
11049;BME280;5577;42.706;23.160;2022-11-20T15:10:53;93562.06;;;12.34;100.00
11049;BME280;5577;42.706;23.160;2022-11-20T15:13:38;93552.41;;;12.05;100.00
11049;BME280;5577;42.706;23.160;2022-11-20T15:16:23;93590.50;;;12.33;100.00
11049;BME280;5577;42.706;23.160;2022-11-20T15:19:20;93595.38;;;12.28;100.00
11049;BME280;5577;42.706;23.160;2022-11-20T15:22:11;93632.94;;;12.30;100.00
11049;BME280;5577;42.706;23.160;2022-11-20T15:24:56;93649.03;;;12.07;100.00
11049;BME280;5577;42.706;23.160;2022-11-20T15:27:41;93642.66;;;12.12;100.00
11049;BME280;5577;42.706;23.160;2022-11-20T15:30:26;93649.41;;;12.06;100.00
11049;BME280;5577;42.706;23.160;2022-11-20T15:33:10;93633.38;;;11.92;100.00
11049;BME280;5577;42.706;23.160;2022-11-20T15:35:54;93660.16;;;11.80;100.00
11049;BME280;5577;42.706;23.160;2022-11-20T15:38:38;93680.16;;;11.74;100.00
11049;BME280;5577;42.706;23.160;2022-11-20T15:41:22;93684.63;;;11.66;100.00
11049;BME280;5577;42.706;23.160;2022-11-20T15:44:06;93691.38;;;11.60;100.00